Hlavní strana
METAR-TAF:

METAR-TAF

Letiště :

Jakutsk, Rusko

zeměpisná šířka: 62-01N, zeměpisná délka: 129-43E, výška: 103 m

Aktuální stav počasí

Zpráva byla vytvořena před 24 minutami, v 23:30 UTC
Jihojihovýchodní vítr 2 kt
Teplota 16°C
Vlhkost vzduchu 68%
Tlak 1004 hPa
Viditelnost 10 km a více
Polojasno ve výšce 5000 ft, Cumulonimbus.
slabé dešťové přeháňky

METAR: UEEE 212330Z 16001MPS 9999 -SHRA SCT050CB 16/10 Q1004 R23L/09//60 NOSIG RMK QFE744

Čas: 08:54 (23:54 UTC)

Předpověď počasí

Zpráva byla vytvořena před 54 minutami, v 23:00 UTC
Předpověď platná od 22 v 00 UTC do 23 v 06 UTC
Jihojihovýchodní vítr 6 kt s nárazy do 16 kt
Viditelnost 10 km a více
Polojasno ve výšce 3000 ft, Cumulonimbus.
Oblačno až skoro zataženo ve výšce 10000 ft
Dočasný
od 22 v 00 UTC do 22 v 09 UTC
slabé dešťové přeháňky

TAF: UEEE 212300Z 2200/2306 16003G08MPS 9999 SCT030CB BKN100 TEMPO 2200/2209 -SHRA

Stav a předpovědi počasí z více než 4 000 letišť (zprávy METAR a TAF).

Červené a žluté tečky na mapě představují dostupné meteorologické stanice.

Když kurzor umístíte na tečku, zobrazí se název stanice.

Pak kliknutím zobrazíte stav a předpověď počasí.

Chcete-li změnit mapu, kliknutím na zelené tlačítko se znaménkem +mapu přiblížíte, kliknutím na zelené tlačítko se znaménkem – mapu oddálíte a kliknutím na zelené šipky přejdete na sousední mapy.


METAR-TAF: